Time;durP1;ratioP1;P1;durP2;ratioP2;P2;SDS_P1;SDS_P2;PMS_P1;PMS_P2;Temp;Humidity;BMP_temperature;BMP_pressure;BME280_temperature;BME280_humidity;BME280_pressure;Samples;Min_cycle;Max_cycle;Signal;HPM_P1;HPM_P2
2022/05/06 00:00:12;;;;;;;9.52;6.63;;;;;;;10.35;59.96;101794.13;690344;28;1395;-82
2022/05/06 00:00:32;;;;;;;8.80;6.50;;;;;;;10.36;59.90;101798.50;690924;28;1516;-81
2022/05/06 00:00:53;;;;;;;8.95;6.45;;;;;;;10.34;59.75;101806.28;691020;28;842;-81
2022/05/06 00:01:13;;;;;;;8.43;6.50;;;;;;;10.39;60.05;101809.09;693551;28;1152;-81
2022/05/06 00:01:34;;;;;;;9.03;6.43;;;;;;;10.28;59.71;101795.56;696368;28;1241;-81
2022/05/06 00:01:54;;;;;;;8.35;6.30;;;;;;;10.27;59.84;101799.00;693361;28;1361;-81
2022/05/06 00:02:17;;;;;;;8.63;6.50;;;;;;;10.30;60.14;101806.94;685421;28;1219;-81
2022/05/06 00:02:37;;;;;;;9.43;6.63;;;;;;;10.35;60.14;101807.16;688274;28;856;-81
2022/05/06 00:02:58;;;;;;;10.70;6.93;;;;;;;10.27;60.12;101796.38;691029;28;763;-81
2022/05/06 00:03:19;;;;;;;11.20;6.70;;;;;;;10.31;60.06;101800.91;690850;28;1194;-82
2022/05/06 00:03:39;;;;;;;11.50;7.00;;;;;;;10.29;59.92;101794.72;690913;28;1228;-81
2022/05/06 00:04:00;;;;;;;10.87;7.00;;;;;;;10.31;60.09;101802.63;690966;28;1110;-81
2022/05/06 00:04:24;;;;;;;11.80;7.40;;;;;;;10.26;60.27;101797.22;688015;28;1526;-81
2022/05/06 00:04:45;;;;;;;12.05;7.55;;;;;;;10.28;60.08;101798.16;688150;28;1229;-81
2022/05/06 00:05:07;;;;;;;11.43;7.80;;;;;;;10.30;60.13;101796.50;688267;28;1136;-81
2022/05/06 00:05:28;;;;;;;9.80;7.40;;;;;;;10.32;60.42;101802.69;688111;28;1108;-81
2022/05/06 00:05:48;;;;;;;9.87;7.23;;;;;;;10.32;60.36;101800.06;690156;28;940;-81
2022/05/06 00:06:09;;;;;;;10.75;7.03;;;;;;;10.34;60.47;101798.47;688144;28;1201;-81
2022/05/06 00:06:31;;;;;;;10.95;6.80;;;;;;;10.36;60.34;101796.81;688169;28;1097;-81
2022/05/06 00:06:52;;;;;;;10.68;6.43;;;;;;;10.35;60.24;101805.47;685125;28;1440;-81
2022/05/06 00:07:12;;;;;;;10.40;6.80;;;;;;;10.40;60.19;101808.28;690828;28;1059;-81
2022/05/06 00:07:33;;;;;;;10.30;7.30;;;;;;;10.35;60.44;101787.19;690890;28;1208;-82
2022/05/06 00:07:54;;;;;;;11.23;7.47;;;;;;;10.38;60.40;101799.50;688297;28;1268;-81
2022/05/06 00:08:16;;;;;;;10.55;6.95;;;;;;;10.35;60.36;101791.50;682840;29;1170;-81
2022/05/06 00:08:36;;;;;;;9.60;6.90;;;;;;;10.35;60.28;101788.91;693577;28;1097;-81
2022/05/06 00:08:57;;;;;;;10.97;6.80;;;;;;;10.36;60.52;101799.41;688120;28;1262;-81
2022/05/06 00:09:17;;;;;;;12.70;7.30;;;;;;;10.38;60.71;101792.53;690066;28;1969;-82
2022/05/06 00:09:39;;;;;;;12.90;7.13;;;;;;;10.43;60.72;101805.78;687758;28;958;-81
2022/05/06 00:10:03;;;;;;;10.80;7.07;;;;;;;10.44;60.72;101799.75;693582;28;1279;-81
2022/05/06 00:10:23;;;;;;;10.27;6.43;;;;;;;10.41;61.08;101792.69;690781;28;1339;-81
2022/05/06 00:10:44;;;;;;;10.32;6.90;;;;;;;10.46;60.52;101805.94;693697;28;1361;-81
2022/05/06 00:11:05;;;;;;;10.23;7.13;;;;;;;10.41;60.60;101794.41;688178;28;1292;-81
2022/05/06 00:11:26;;;;;;;10.33;7.03;;;;;;;10.46;60.76;101805.94;690911;28;1092;-81
2022/05/06 00:11:46;;;;;;;13.40;7.53;;;;;;;10.44;60.33;101791.91;690886;28;1192;-81
2022/05/06 00:12:07;;;;;;;12.55;7.35;;;;;;;10.45;60.61;101800.66;690672;28;1149;-81
2022/05/06 00:12:28;;;;;;;11.48;7.53;;;;;;;10.46;60.67;101799.81;687981;28;1375;-81
2022/05/06 00:12:48;;;;;;;10.70;6.90;;;;;;;10.40;60.27;101800.44;688199;28;1434;-81
2022/05/06 00:13:09;;;;;;;11.93;6.60;;;;;;;10.45;60.72;101806.75;693676;28;956;-81
2022/05/06 00:13:30;;;;;;;12.27;6.40;;;;;;;10.33;60.47;101785.34;693557;28;1178;-81
2022/05/06 00:13:52;;;;;;;10.77;6.50;;;;;;;10.38;60.67;101805.59;688088;28;1345;-82
2022/05/06 00:14:13;;;;;;;7.97;6.40;;;;;;;10.35;60.47;101802.84;693515;28;1256;-81
2022/05/06 00:14:35;;;;;;;7.60;6.50;;;;;;;10.33;60.70;101796.63;690676;28;1303;-81
2022/05/06 00:14:56;;;;;;;7.65;6.40;;;;;;;10.28;60.60;101800.78;693597;28;1326;-81
2022/05/06 00:15:17;;;;;;;9.45;6.70;;;;;;;10.27;60.67;101796.38;687940;28;1162;-81
2022/05/06 00:15:38;;;;;;;9.32;6.70;;;;;;;10.24;60.51;101798.84;685750;28;1049;-81
2022/05/06 00:15:58;;;;;;;9.55;6.65;;;;;;;10.24;60.53;101804.06;690725;28;1247;-81
2022/05/06 00:16:23;;;;;;;9.40;6.50;;;;;;;10.17;60.70;101788.91;693465;28;1248;-82
2022/05/06 00:16:44;;;;;;;9.38;6.38;;;;;;;10.13;60.61;101788.78;685414;28;1229;-81
2022/05/06 00:17:05;;;;;;;9.10;6.43;;;;;;;10.16;60.49;101795.84;690825;28;1039;-82
2022/05/06 00:17:26;;;;;;;9.43;6.38;;;;;;;10.22;60.70;101801.38;690772;28;1413;-80
2022/05/06 00:17:46;;;;;;;9.43;6.05;;;;;;;10.19;60.50;101806.41;682813;28;1162;-81
2022/05/06 00:18:07;;;;;;;9.03;6.17;;;;;;;10.13;60.60;101795.69;688110;28;1317;-81
2022/05/06 00:18:27;;;;;;;10.40;6.63;;;;;;;10.13;60.49;101801.81;688014;28;1340;-81
2022/05/06 00:18:49;;;;;;;12.20;6.95;;;;;;;10.09;60.64;101791.16;690926;28;1206;-81
2022/05/06 00:19:09;;;;;;;11.98;6.85;;;;;;;10.17;60.55;101809.78;688207;28;1055;-81
2022/05/06 00:19:31;;;;;;;10.75;6.55;;;;;;;10.11;60.80;101806.09;693022;28;1375;-81
2022/05/06 00:19:52;;;;;;;8.40;6.32;;;;;;;10.11;60.62;101797.34;696208;28;1234;-81
2022/05/06 00:20:12;;;;;;;9.60;6.63;;;;;;;10.12;60.57;101802.66;690649;28;1527;-82
2022/05/06 00:20:33;;;;;;;9.77;6.80;;;;;;;10.06;60.65;101799.75;685585;28;855;-81
2022/05/06 00:20:54;;;;;;;9.60;6.40;;;;;;;10.07;60.60;101801.53;680288;29;1272;-82
2022/05/06 00:21:15;;;;;;;9.90;6.07;;;;;;;10.04;60.52;101790.06;685230;28;1241;-81
2022/05/06 00:21:36;;;;;;;9.63;6.13;;;;;;;10.03;60.69;101797.00;685514;28;1289;-81
2022/05/06 00:21:57;;;;;;;10.52;6.68;;;;;;;10.05;60.96;101813.63;685578;28;811;-81
2022/05/06 00:22:17;;;;;;;10.52;6.82;;;;;;;9.99;60.95;101798.56;690723;28;1151;-81
2022/05/06 00:22:38;;;;;;;12.13;6.83;;;;;;;9.99;60.65;101797.66;693635;28;1117;-81
2022/05/06 00:23:00;;;;;;;11.85;6.35;;;;;;;9.99;60.96;101792.44;688188;28;1240;-81
2022/05/06 00:23:21;;;;;;;14.00;6.60;;;;;;;10.01;60.92;101803.84;680049;29;1311;-81
2022/05/06 00:23:41;;;;;;;12.50;6.40;;;;;;;10.01;61.21;101809.06;685428;28;1302;-81
2022/05/06 00:24:03;;;;;;;12.80;6.57;;;;;;;9.98;61.04;101802.00;690187;28;1301;-81
2022/05/06 00:24:24;;;;;;;10.85;6.40;;;;;;;10.03;60.98;101815.25;687748;28;1207;-81
2022/05/06 00:24:44;;;;;;;11.35;6.70;;;;;;;9.99;61.09;101805.50;685511;28;1372;-82
2022/05/06 00:25:05;;;;;;;9.40;6.38;;;;;;;10.05;60.91;101812.69;685414;28;1288;-82
2022/05/06 00:25:26;;;;;;;9.73;6.73;;;;;;;9.97;61.02;101804.53;685463;28;1011;-80
2022/05/06 00:25:47;;;;;;;9.43;6.35;;;;;;;9.97;61.03;101804.53;685457;28;1143;-81
2022/05/06 00:26:08;;;;;;;8.83;6.40;;;;;;;10.01;61.08;101814.28;682916;29;1002;-81
2022/05/06 00:26:28;;;;;;;9.75;6.20;;;;;;;9.99;61.23;101808.09;685204;28;1276;-81
2022/05/06 00:26:49;;;;;;;9.55;6.25;;;;;;;10.00;61.28;101813.41;685478;28;1167;-81
2022/05/06 00:27:11;;;;;;;10.02;6.65;;;;;;;10.04;61.19;101816.13;690854;28;1088;-81
2022/05/06 00:27:31;;;;;;;8.90;6.60;;;;;;;10.03;60.94;101810.03;693548;28;1159;-81
2022/05/06 00:27:52;;;;;;;7.88;6.53;;;;;;;9.99;61.04;101802.88;690939;28;845;-81
2022/05/06 00:28:13;;;;;;;8.70;6.80;;;;;;;10.10;61.18;101811.22;682719;29;1220;-81
2022/05/06 00:28:34;;;;;;;9.90;7.07;;;;;;;10.03;61.30;101802.22;688149;28;1250;-81
2022/05/06 00:28:54;;;;;;;10.18;6.80;;;;;;;10.08;60.94;101805.03;690932;28;870;-81
2022/05/06 00:29:16;;;;;;;9.77;6.77;;;;;;;10.13;61.17;101808.75;690677;28;1918;-80
2022/05/06 00:29:37;;;;;;;8.20;6.63;;;;;;;10.08;61.30;101803.31;685041;28;1210;-81
2022/05/06 00:29:57;;;;;;;8.07;6.60;;;;;;;10.09;61.13;101799.88;688058;28;1344;-81
2022/05/06 00:30:20;;;;;;;8.20;6.13;;;;;;;10.15;60.99;101809.72;690185;28;1294;-81
2022/05/06 00:30:41;;;;;;;8.98;6.25;;;;;;;10.13;60.72;101813.94;693653;28;800;-81
2022/05/06 00:31:03;;;;;;;8.90;6.50;;;;;;;10.15;60.94;101815.81;688075;28;1128;-81
2022/05/06 00:31:23;;;;;;;8.73;6.55;;;;;;;10.11;61.01;101803.47;688086;28;1014;-81
2022/05/06 00:31:44;;;;;;;7.35;6.13;;;;;;;10.12;60.75;101810.47;685568;28;760;-81
2022/05/06 00:32:05;;;;;;;7.10;5.80;;;;;;;10.12;60.82;101817.38;682909;28;1075;-81
2022/05/06 00:32:26;;;;;;;9.18;6.40;;;;;;;10.06;61.03;101802.34;687421;28;1350;-81
2022/05/06 00:32:47;;;;;;;11.43;6.90;;;;;;;10.06;61.02;101799.75;693499;28;1283;-80
2022/05/06 00:33:09;;;;;;;12.13;7.25;;;;;;;10.12;61.21;101813.06;688141;28;1566;-81
2022/05/06 00:33:31;;;;;;;9.35;6.93;;;;;;;10.08;61.12;101803.31;688213;28;1104;-81
2022/05/06 00:33:51;;;;;;;8.00;6.90;;;;;;;10.08;60.88;101802.44;685540;28;760;-81
2022/05/06 00:34:12;;;;;;;7.73;6.60;;;;;;;10.13;60.76;101811.34;685447;28;1006;-81
2022/05/06 00:34:35;;;;;;;8.07;6.38;;;;;;;10.12;60.88;101804.34;682782;29;1225;-81
2022/05/06 00:34:56;;;;;;;8.70;6.47;;;;;;;10.06;60.99;101802.34;688103;28;764;-81
2022/05/06 00:35:16;;;;;;;8.55;6.60;;;;;;;10.05;61.11;101802.28;687994;28;1652;-81
2022/05/06 00:35:38;;;;;;;8.05;6.80;;;;;;;9.98;61.22;101796.78;693154;28;1457;-81
2022/05/06 00:36:00;;;;;;;8.15;6.68;;;;;;;9.97;61.34;101796.72;690875;28;1312;-81
2022/05/06 00:36:21;;;;;;;7.97;6.25;;;;;;;10.00;61.28;101812.50;687983;28;1055;-81
2022/05/06 00:36:42;;;;;;;7.25;5.70;;;;;;;9.99;61.04;101814.22;685425;28;1253;-81
2022/05/06 00:37:03;;;;;;;7.88;5.60;;;;;;;9.96;61.45;101806.22;690698;28;1247;-80
2022/05/06 00:37:24;;;;;;;9.20;5.90;;;;;;;9.97;61.05;101814.97;690776;28;1000;-81
2022/05/06 00:37:45;;;;;;;10.82;6.30;;;;;;;9.89;61.27;101801.53;690791;28;1264;-81
2022/05/06 00:38:06;;;;;;;9.32;6.15;;;;;;;9.85;61.38;101797.03;684967;28;1120;-81
2022/05/06 00:38:27;;;;;;;8.00;6.00;;;;;;;9.81;61.38;101795.06;688115;28;907;-81
2022/05/06 00:38:48;;;;;;;6.70;5.70;;;;;;;9.83;61.16;101802.16;687940;28;1309;-81
2022/05/06 00:39:08;;;;;;;7.53;5.82;;;;;;;9.87;61.33;101813.63;690826;28;1185;-81
2022/05/06 00:39:29;;;;;;;8.20;6.20;;;;;;;9.83;61.13;101804.75;682579;29;1056;-81
2022/05/06 00:39:50;;;;;;;9.25;6.30;;;;;;;9.82;61.10;101810.81;687171;28;1209;-81
2022/05/06 00:40:13;;;;;;;9.37;6.40;;;;;;;9.75;61.31;101798.28;688127;28;1280;-80
2022/05/06 00:40:34;;;;;;;9.25;6.43;;;;;;;9.74;61.36;101801.72;685502;28;1498;-81
2022/05/06 00:40:55;;;;;;;9.18;6.82;;;;;;;9.70;61.17;101799.78;685561;28;788;-81
2022/05/06 00:41:15;;;;;;;9.85;6.70;;;;;;;9.77;61.57;101814.88;693310;28;1153;-81
2022/05/06 00:41:37;;;;;;;10.45;6.93;;;;;;;9.78;61.08;101818.41;690826;28;1298;-81
2022/05/06 00:41:57;;;;;;;9.55;6.80;;;;;;;9.68;61.21;101801.41;682790;29;1302;-81
2022/05/06 00:42:18;;;;;;;9.50;7.07;;;;;;;9.73;61.18;101813.84;682200;29;1146;-81
2022/05/06 00:42:38;;;;;;;9.68;6.88;;;;;;;9.65;61.11;101799.56;690798;28;1179;-81
2022/05/06 00:42:59;;;;;;;9.02;6.43;;;;;;;9.64;61.12;101805.59;688137;28;1151;-81
2022/05/06 00:43:21;;;;;;;8.80;6.20;;;;;;;9.66;61.48;101808.28;693462;28;1120;-81
2022/05/06 00:43:42;;;;;;;8.50;6.38;;;;;;;9.63;61.27;101808.16;685366;28;1344;-82
2022/05/06 00:44:07;;;;;;;8.32;6.57;;;;;;;9.67;61.66;101815.28;690842;28;1342;-81
2022/05/06 00:44:29;;;;;;;8.30;6.65;;;;;;;9.68;61.43;101811.84;688092;28;1216;-81
2022/05/06 00:44:50;;;;;;;9.20;6.93;;;;;;;9.60;61.42;101808.88;685445;28;1427;-82
2022/05/06 00:45:12;;;;;;;9.07;6.80;;;;;;;9.64;61.52;101809.94;687921;28;1237;-81
2022/05/06 00:45:45;;;;;;;8.80;6.88;;;;;;;9.68;61.21;101822.28;688045;28;1231;-81
2022/05/06 00:46:12;;;;;;;10.68;6.63;;;;;;;9.63;61.60;101802.94;688029;28;1276;-81
2022/05/06 00:46:37;;;;;;;11.05;6.80;;;;;;;9.70;61.44;101815.41;688036;28;1371;-81
2022/05/06 00:47:18;;;;;;;10.20;6.80;;;;;;;9.67;61.71;101816.19;693480;28;1402;-81
2022/05/06 00:47:39;;;;;;;9.13;6.40;;;;;;;9.62;61.96;101806.31;690456;28;1217;-81
2022/05/06 00:48:00;;;;;;;8.77;6.30;;;;;;;9.68;61.54;101811.84;696387;28;796;-81
2022/05/06 00:48:26;;;;;;;9.00;6.32;;;;;;;9.55;61.62;101798.25;687829;28;1280;-81
2022/05/06 00:48:48;;;;;;;7.60;6.30;;;;;;;9.67;61.76;101815.28;685052;28;1648;-81
2022/05/06 00:49:11;;;;;;;9.18;6.75;;;;;;;9.71;61.86;101814.63;688031;28;1907;-81
2022/05/06 00:49:33;;;;;;;10.43;7.18;;;;;;;9.67;62.21;101804.84;690404;28;878;-81
2022/05/06 00:50:14;;;;;;;9.63;6.75;;;;;;;9.74;61.61;101812.16;690441;28;1189;-81
2022/05/06 00:50:35;;;;;;;8.65;5.93;;;;;;;9.68;61.87;101807.53;690785;28;1200;-81
2022/05/06 00:51:00;;;;;;;8.55;6.20;;;;;;;9.66;61.78;101805.69;688105;28;1506;-81
2022/05/06 00:51:21;;;;;;;7.78;6.00;;;;;;;9.72;61.79;101816.41;690627;28;1372;-81
2022/05/06 00:51:42;;;;;;;7.97;6.13;;;;;;;9.68;61.92;101811.84;693563;28;819;-81
2022/05/06 00:52:04;;;;;;;8.43;6.13;;;;;;;9.68;61.76;101817.06;690738;28;1012;-81
2022/05/06 00:52:25;;;;;;;9.55;6.40;;;;;;;9.67;61.56;101805.75;682643;29;1294;-81
2022/05/06 00:52:46;;;;;;;9.75;6.60;;;;;;;9.61;62.11;101802.84;690759;28;1254;-82
2022/05/06 00:53:08;;;;;;;10.38;6.70;;;;;;;9.62;61.92;101806.31;692755;28;1309;-81
2022/05/06 00:53:28;;;;;;;9.00;6.97;;;;;;;9.59;62.09;101807.97;687960;28;1601;-81
2022/05/06 00:53:50;;;;;;;9.07;6.80;;;;;;;9.62;62.08;101811.53;688128;28;1193;-81
2022/05/06 00:54:12;;;;;;;10.80;7.40;;;;;;;9.52;61.99;101798.06;685267;28;1249;-81
2022/05/06 00:54:34;;;;;;;11.40;7.43;;;;;;;9.69;61.86;101816.25;684908;28;1382;-81
2022/05/06 00:54:55;;;;;;;9.32;6.82;;;;;;;9.60;62.06;101804.53;688146;28;874;-81
2022/05/06 00:55:15;;;;;;;7.95;6.55;;;;;;;9.57;62.34;101804.41;687971;28;1194;-82
2022/05/06 00:55:37;;;;;;;8.05;6.57;;;;;;;9.60;62.14;101808.88;690877;28;961;-81
2022/05/06 00:55:57;;;;;;;8.48;6.65;;;;;;;9.66;61.90;101823.91;688097;28;1224;-81
2022/05/06 00:56:18;;;;;;;10.45;7.00;;;;;;;9.61;62.03;101813.28;687933;28;1109;-81
2022/05/06 00:56:39;;;;;;;13.50;7.17;;;;;;;9.64;62.14;101815.13;693507;28;1371;-81
2022/05/06 00:57:01;;;;;;;13.43;7.22;;;;;;;9.65;62.28;101822.13;685384;28;1321;-80
2022/05/06 00:57:22;;;;;;;12.45;6.78;;;;;;;9.60;62.45;101814.97;690306;28;1091;-82
2022/05/06 00:57:43;;;;;;;8.77;6.60;;;;;;;9.53;62.07;101805.06;688076;28;882;-81
2022/05/06 00:58:04;;;;;;;8.50;6.60;;;;;;;9.54;62.20;101804.28;688043;28;1061;-81
2022/05/06 00:58:29;;;;;;;9.30;7.00;;;;;;;9.64;62.23;101821.22;690742;28;980;-81
2022/05/06 00:58:51;;;;;;;8.80;6.63;;;;;;;9.60;62.28;101812.38;690806;28;1149;-81
2022/05/06 00:59:13;;;;;;;6.72;6.03;;;;;;;9.54;61.97;101804.28;690630;28;1456;-81
2022/05/06 01:00:17;;;;;;;6.80;6.10;;;;;;;9.62;62.43;101824.56;690457;28;846;-81
2022/05/06 01:00:18;;;;;;;8.45;6.80;;;;;;;9.56;62.25;101810.44;688025;28;1091;-81
2022/05/06 01:00:39;;;;;;;10.52;6.90;;;;;;;9.55;62.15;101813.88;688082;28;875;-81
2022/05/06 01:01:01;;;;;;;10.03;6.30;;;;;;;9.60;62.45;101820.19;693549;28;1259;-81
2022/05/06 01:01:22;;;;;;;11.55;6.53;;;;;;;9.54;62.06;101812.09;688392;28;1792;-81
2022/05/06 01:02:10;;;;;;;10.10;6.57;;;;;;;9.56;62.14;101823.47;685244;28;1271;-81
2022/05/06 01:02:32;;;;;;;7.82;6.00;;;;;;;9.46;62.34;101810.78;682831;29;906;-81
2022/05/06 01:02:52;;;;;;;8.00;6.00;;;;;;;9.41;62.58;101807.09;692896;28;1274;-81
2022/05/06 01:03:13;;;;;;;8.37;6.03;;;;;;;9.40;62.09;101810.50;690633;28;1094;-81
2022/05/06 01:03:34;;;;;;;8.43;6.47;;;;;;;9.36;62.18;101805.94;688030;28;1540;-81
2022/05/06 01:03:54;;;;;;;7.88;6.20;;;;;;;9.37;62.40;101807.72;693005;28;1446;-81
2022/05/06 01:04:17;;;;;;;8.18;6.30;;;;;;;9.39;62.48;101819.16;688213;28;1189;-82
2022/05/06 01:04:38;;;;;;;8.90;6.13;;;;;;;9.37;62.28;101810.34;692449;28;1765;-81
2022/05/06 01:05:01;;;;;;;10.60;6.70;;;;;;;9.36;62.66;101808.56;690366;28;1110;-82
2022/05/06 01:05:22;;;;;;;10.38;7.40;;;;;;;9.40;62.04;101814.00;687975;28;1150;-81
2022/05/06 01:05:43;;;;;;;10.48;7.35;;;;;;;9.39;62.34;101813.94;688104;28;1399;-81
2022/05/06 01:06:10;;;;;;;7.72;6.60;;;;;;;9.39;62.26;101814.81;687969;28;1307;-81
2022/05/06 01:06:36;;;;;;;11.02;6.75;;;;;;;9.32;62.17;101803.22;690674;28;920;-81
2022/05/06 01:06:57;;;;;;;11.77;7.20;;;;;;;9.36;62.32;101809.47;687160;28;1110;-82
2022/05/06 01:07:21;;;;;;;12.90;7.22;;;;;;;9.40;62.42;101826.16;691954;28;1050;-81
2022/05/06 01:07:47;;;;;;;12.90;7.00;;;;;;;9.39;62.19;101824.34;685047;28;1267;-81
2022/05/06 01:08:09;;;;;;;11.63;6.97;;;;;;;9.40;62.56;101815.72;688020;28;1391;-81
2022/05/06 01:08:30;;;;;;;9.93;7.18;;;;;;;9.39;62.47;101825.22;685318;28;1222;-82
2022/05/06 01:08:51;;;;;;;9.23;7.10;;;;;;;9.34;62.26;101807.59;690461;28;1372;-81
2022/05/06 01:09:16;;;;;;;8.95;7.22;;;;;;;9.40;62.49;101810.50;690526;28;1910;-81
2022/05/06 01:09:37;;;;;;;7.90;6.70;;;;;;;9.38;62.50;101806.91;687593;28;886;-81
2022/05/06 01:09:57;;;;;;;9.05;7.07;;;;;;;9.42;62.47;101816.69;685329;28;1079;-81
2022/05/06 01:10:20;;;;;;;8.67;6.70;;;;;;;9.46;62.11;101818.59;685315;28;1092;-81
2022/05/06 01:10:42;;;;;;;9.73;7.07;;;;;;;9.48;61.99;101824.81;688179;28;849;-81
2022/05/06 01:11:02;;;;;;;8.80;6.80;;;;;;;9.46;62.42;101821.22;687590;28;1385;-81
2022/05/06 01:11:23;;;;;;;8.32;7.07;;;;;;;9.44;61.94;101818.56;687919;28;1224;-81
2022/05/06 01:11:44;;;;;;;8.23;6.90;;;;;;;9.38;62.26;101805.22;688170;28;1305;-81
2022/05/06 01:12:05;;;;;;;7.72;6.70;;;;;;;9.38;61.95;101804.31;680064;29;1364;-81
2022/05/06 01:12:26;;;;;;;8.77;6.68;;;;;;;9.41;62.13;101817.50;685164;28;1111;-81
2022/05/06 01:12:48;;;;;;;9.75;7.10;;;;;;;9.39;62.35;101803.50;685455;28;1280;-81
2022/05/06 01:13:12;;;;;;;9.52;7.20;;;;;;;9.38;62.63;101807.81;687834;28;1063;-81
2022/05/06 01:13:44;;;;;;;9.02;6.80;;;;;;;9.38;62.43;101812.13;688032;28;1247;-81
2022/05/06 01:14:09;;;;;;;9.45;6.32;;;;;;;9.39;62.59;101813.94;690613;28;1125;-81
2022/05/06 01:14:32;;;;;;;9.40;6.22;;;;;;;9.41;62.36;101817.50;687892;28;1470;-81
2022/05/06 01:14:55;;;;;;;8.73;5.90;;;;;;;9.42;62.24;101825.41;685272;28;1382;-80
2022/05/06 01:15:25;;;;;;;9.05;6.15;;;;;;;9.35;62.44;101817.19;690054;28;1246;-81
2022/05/06 01:15:54;;;;;;;8.30;6.22;;;;;;;9.28;62.43;101811.66;688030;28;848;-81
2022/05/06 01:16:18;;;;;;;10.98;6.50;;;;;;;9.27;62.43;101812.50;682549;29;1223;-81
2022/05/06 01:16:44;;;;;;;13.60;6.60;;;;;;;9.36;62.57;101825.09;690808;28;1399;-81
2022/05/06 01:17:05;;;;;;;14.63;7.00;;;;;;;9.30;62.62;101811.75;690718;28;1112;-81
2022/05/06 01:17:25;;;;;;;11.55;6.82;;;;;;;9.25;62.44;101816.75;685379;28;969;-81
2022/05/06 01:17:51;;;;;;;10.98;7.07;;;;;;;9.34;62.58;101825.84;687353;28;1443;-82
2022/05/06 01:18:12;;;;;;;10.80;6.72;;;;;;;9.31;62.24;101817.06;690665;28;1097;-81
2022/05/06 01:18:33;;;;;;;11.55;6.57;;;;;;;9.28;62.54;101814.28;688022;28;1839;-81
2022/05/06 01:18:54;;;;;;;11.43;6.55;;;;;;;9.27;62.37;101820.31;685165;28;953;-81
2022/05/06 01:19:15;;;;;;;11.40;6.53;;;;;;;9.25;62.52;101814.13;682408;28;1176;-82
2022/05/06 01:19:35;;;;;;;10.03;6.50;;;;;;;9.27;62.46;101822.91;687629;28;1277;-81
2022/05/06 01:19:56;;;;;;;10.57;6.38;;;;;;;9.29;62.54;101823.00;685470;28;1401;-81
2022/05/06 01:20:18;;;;;;;9.90;6.00;;;;;;;9.21;62.51;101809.56;685224;28;1388;-83
2022/05/06 01:20:52;;;;;;;9.63;6.00;;;;;;;9.27;62.63;101824.63;685364;28;871;-81
2022/05/06 01:21:19;;;;;;;8.98;6.55;;;;;;;9.25;62.21;101821.94;690559;28;1127;-81
2022/05/06 01:21:43;;;;;;;8.80;6.60;;;;;;;9.20;62.13;101815.59;690727;28;1143;-81
2022/05/06 01:22:05;;;;;;;7.70;6.30;;;;;;;9.25;62.35;101816.75;690524;28;1401;-81
2022/05/06 01:22:26;;;;;;;7.70;6.25;;;;;;;9.23;62.57;101818.38;687765;28;1374;-81
2022/05/06 01:22:51;;;;;;;8.20;6.28;;;;;;;9.25;62.70;101827.16;688159;28;1332;-81
2022/05/06 01:23:12;;;;;;;8.77;6.47;;;;;;;9.18;62.65;101809.44;690607;28;1063;-81
2022/05/06 01:23:34;;;;;;;8.43;6.60;;;;;;;9.24;62.59;101825.38;684900;28;909;-81
2022/05/06 01:23:54;;;;;;;9.13;6.97;;;;;;;9.14;62.35;101807.47;688046;28;808;-81
2022/05/06 01:24:15;;;;;;;8.32;6.40;;;;;;;9.12;62.55;101803.91;688018;28;1112;-81
2022/05/06 01:24:36;;;;;;;9.30;6.50;;;;;;;9.14;62.81;101812.69;685295;28;1150;-80
2022/05/06 01:25:01;;;;;;;8.88;6.18;;;;;;;9.12;62.56;101803.91;682796;29;796;-81
2022/05/06 01:25:22;;;;;;;9.75;6.20;;;;;;;9.13;62.59;101811.81;693338;28;1021;-81
2022/05/06 01:25:43;;;;;;;8.85;5.93;;;;;;;9.18;62.55;101820.75;693402;28;1100;-81
2022/05/06 01:26:04;;;;;;;9.05;6.50;;;;;;;9.17;62.50;101820.66;690739;28;1069;-82
2022/05/06 01:26:56;;;;;;;9.00;6.60;;;;;;;9.18;62.55;101825.06;688062;28;1098;-81
2022/05/06 01:27:26;;;;;;;9.30;6.60;;;;;;;9.12;62.41;101804.81;687939;28;1177;-81
2022/05/06 01:27:55;;;;;;;8.10;6.57;;;;;;;9.18;62.53;101819.84;688113;28;839;-83
2022/05/06 01:28:16;;;;;;;8.85;7.00;;;;;;;9.18;62.68;101814.63;690549;28;1436;-81
2022/05/06 01:28:41;;;;;;;8.63;6.85;;;;;;;9.16;62.60;101822.38;696106;28;1206;-81
2022/05/06 01:29:02;;;;;;;10.93;6.80;;;;;;;9.20;62.72;101818.19;690759;28;823;-81
2022/05/06 01:29:23;;;;;;;10.15;6.45;;;;;;;9.23;62.61;101828.78;690565;28;1976;-81
2022/05/06 01:29:45;;;;;;;11.27;6.97;;;;;;;9.17;62.52;101818.06;687611;28;769;-81
2022/05/06 01:30:08;;;;;;;8.07;6.35;;;;;;;9.14;62.62;101812.69;688127;28;1151;-81
2022/05/06 01:30:35;;;;;;;8.82;6.50;;;;;;;9.23;62.87;101828.78;687757;28;1487;-81
2022/05/06 01:31:01;;;;;;;9.68;6.38;;;;;;;9.18;62.59;101825.06;693403;28;1312;-81
2022/05/06 01:31:24;;;;;;;9.63;5.90;;;;;;;9.12;62.67;101820.44;690559;28;1149;-81
2022/05/06 01:31:46;;;;;;;8.55;5.75;;;;;;;9.17;62.73;101823.28;687979;28;1121;-81
2022/05/06 01:32:07;;;;;;;7.18;5.70;;;;;;;9.15;62.86;101825.78;687770;28;1448;-81
2022/05/06 01:32:29;;;;;;;7.72;6.10;;;;;;;9.14;62.97;101823.09;687922;28;1097;-81
2022/05/06 01:32:50;;;;;;;7.85;6.20;;;;;;;9.09;62.86;101815.06;685260;28;1418;-81
2022/05/06 01:33:14;;;;;;;8.10;6.45;;;;;;;9.09;62.60;101822.88;682732;29;986;-81
2022/05/06 01:33:36;;;;;;;7.93;6.70;;;;;;;9.07;62.66;101823.63;687974;28;1374;-82
2022/05/06 01:33:56;;;;;;;7.70;6.88;;;;;;;9.08;62.87;101825.41;685195;28;1243;-81
2022/05/06 01:34:18;;;;;;;8.77;6.47;;;;;;;9.02;63.00;101824.28;687855;28;1356;-80
2022/05/06 01:34:40;;;;;;;10.32;6.15;;;;;;;9.07;62.59;101831.44;687982;28;1348;-81
2022/05/06 01:35:10;;;;;;;10.32;6.35;;;;;;;9.07;62.60;101836.66;687793;28;1446;-81
2022/05/06 01:35:35;;;;;;;8.85;6.68;;;;;;;8.98;63.12;101819.72;687280;28;1426;-81
2022/05/06 01:36:00;;;;;;;8.75;6.53;;;;;;;8.97;62.92;101812.72;690686;28;890;-81
2022/05/06 01:36:24;;;;;;;7.70;5.90;;;;;;;9.05;62.88;101840.03;690590;28;1185;-81
2022/05/06 01:36:51;;;;;;;10.82;6.05;;;;;;;9.04;62.66;101830.44;682611;28;1352;-81
2022/05/06 01:37:13;;;;;;;10.93;6.50;;;;;;;9.04;62.80;101821.75;687741;28;1103;-81
2022/05/06 01:37:36;;;;;;;11.00;6.53;;;;;;;8.96;62.80;101810.94;690636;28;1394;-81
2022/05/06 01:38:04;;;;;;;8.32;6.20;;;;;;;8.95;62.98;101811.75;690549;28;1384;-81
2022/05/06 01:38:30;;;;;;;9.00;6.05;;;;;;;9.07;62.89;101829.72;693323;28;1024;-81
2022/05/06 01:38:59;;;;;;;8.52;5.95;;;;;;;8.98;63.15;101811.91;688034;28;1211;-81
2022/05/06 01:39:25;;;;;;;8.88;6.40;;;;;;;9.03;62.92;101814.75;685097;28;1066;-81
2022/05/06 01:39:52;;;;;;;9.60;6.60;;;;;;;9.04;62.99;101827.84;687697;28;878;-81
2022/05/06 01:40:15;;;;;;;10.73;6.72;;;;;;;9.10;63.05;101829.84;687869;28;1029;-81
2022/05/06 01:40:39;;;;;;;9.80;6.63;;;;;;;9.10;62.79;101824.66;688041;28;803;-82
2022/05/06 01:41:03;;;;;;;8.75;6.57;;;;;;;9.07;63.26;101828.84;685337;28;875;-81
2022/05/06 01:41:35;;;;;;;9.90;6.68;;;;;;;9.00;63.01;101809.38;687855;28;804;-81
2022/05/06 01:42:05;;;;;;;10.68;6.60;;;;;;;9.10;63.26;101828.97;690670;28;1099;-82
2022/05/06 01:42:36;;;;;;;8.95;6.10;;;;;;;9.09;62.92;101829.81;690662;28;783;-81
2022/05/06 01:43:01;;;;;;;7.25;6.07;;;;;;;9.04;63.39;101821.75;685382;28;850;-81
2022/05/06 01:43:25;;;;;;;7.68;6.35;;;;;;;9.02;63.09;101819.06;690311;28;1017;-81
2022/05/06 01:43:55;;;;;;;7.50;6.00;;;;;;;9.05;63.29;101826.16;690748;28;929;-81
2022/05/06 01:44:18;;;;;;;8.07;6.10;;;;;;;9.06;62.93;101835.75;690570;28;1400;-81
2022/05/06 01:44:43;;;;;;;9.73;6.22;;;;;;;9.06;63.20;101833.13;684385;28;1335;-81
2022/05/06 01:45:10;;;;;;;9.43;6.10;;;;;;;8.96;62.70;101818.75;693215;28;1432;-81
2022/05/06 01:45:34;;;;;;;8.80;6.40;;;;;;;8.95;62.74;101816.09;688036;28;834;-81
2022/05/06 01:45:56;;;;;;;9.90;6.13;;;;;;;8.98;62.87;101830.13;690138;28;1286;-81
2022/05/06 01:46:18;;;;;;;10.05;6.03;;;;;;;8.91;63.09;101822.84;687732;28;1139;-80
2022/05/06 01:46:45;;;;;;;9.90;6.10;;;;;;;8.93;63.02;101823.81;693438;28;870;-81
2022/05/06 01:47:19;;;;;;;9.93;6.10;;;;;;;8.90;63.03;101827.13;690648;28;1113;-81
2022/05/06 01:47:41;;;;;;;9.70;6.05;;;;;;;8.86;63.03;101816.50;688074;28;830;-81
2022/05/06 01:48:04;;;;;;;9.55;6.25;;;;;;;8.86;63.08;101824.31;691465;28;1134;-82
2022/05/06 01:48:28;;;;;;;7.80;6.20;;;;;;;8.87;63.13;101818.28;690425;28;1162;-81
2022/05/06 01:48:50;;;;;;;8.75;5.93;;;;;;;8.84;63.19;101823.34;687869;28;1489;-81